Date,TemperatureHighF,TemperatureAvgF,TemperatureLowF,DewpointHighF,DewpointAvgF,DewpointLowF,HumidityHigh,HumidityAvg,HumidityLow,PressureMaxIn,PressureMinIn,WindSpeedMaxMPH,WindSpeedAvgMPH,GustSpeedMaxMPH,PrecipitationSumIn
2013-1-1,47.2,43.0,37.6,46.0,40.0,32.0,97,89,80,30.30,30.06,10,2,13,0.02
2013-1-2,40.3,35.8,27.3,32.0,30.7,25.0,94,81,72,30.38,30.29,6,2,8,0.00
2013-1-3,49.0,37.7,24.5,35.0,29.5,23.0,96,75,51,30.51,30.37,7,1,13,0.00
2013-1-4,51.9,45.2,39.8,39.0,34.1,30.0,87,66,45,30.55,30.40,6,1,11,0.01
2013-1-5,56.2,45.1,37.5,42.0,39.6,35.0,94,82,58,30.41,30.25,5,1,9,0.00
2013-1-6,58.7,41.1,29.1,39.0,31.8,26.0,97,74,36,30.41,30.31,7,1,11,0.01
2013-1-7,54.3,41.2,26.4,38.0,32.1,24.0,94,72,47,30.37,30.14,8,2,11,0.00
2013-1-8,54.7,48.8,45.4,54.0,45.9,38.0,98,90,71,30.15,29.94,5,2,9,0.95
2013-1-9,59.6,55.6,51.1,59.0,55.3,51.0,99,98,96,30.11,29.93,17,3,17,3.70
2013-1-10,61.0,56.2,49.6,61.0,51.9,46.0,99,86,68,30.02,29.95,11,4,17,0.05
2013-1-11,73.3,60.6,47.8,63.0,53.3,45.0,92,78,52,29.99,29.80,10,4,16,0.00
2013-1-12,75.5,61.6,38.7,70.0,58.9,35.0,98,90,80,29.92,29.64,12,4,19,0.04
2013-1-13,45.9,38.2,31.2,35.0,29.8,23.0,87,72,55,30.29,29.93,10,4,18,0.04
2013-1-14,46.3,35.8,27.8,32.0,26.7,23.0,82,70,55,30.34,30.22,9,3,14,0.01
2013-1-15,38.0,33.9,31.1,33.0,29.5,23.0,95,85,56,30.26,30.16,9,2,13,0.13
2013-1-16,47.8,35.5,26.8,29.0,25.7,23.0,90,70,44,30.34,30.21,6,1,10,0.00
2013-1-17,61.0,43.3,28.9,39.0,32.4,25.0,88,68,41,30.53,30.29,7,1,10,0.00
2013-1-18,62.5,46.4,29.8,40.0,34.9,28.0,96,67,41,30.54,30.32,10,2,13,0.00
2013-1-19,63.8,50.0,36.6,49.0,41.7,34.0,91,74,57,30.33,30.18,9,3,14,0.00
2013-1-20,71.1,55.2,40.4,52.0,45.8,39.0,97,73,41,30.25,30.09,6,2,13,0.00
2013-1-21,59.6,48.0,40.3,47.0,40.1,36.0,97,76,52,30.29,30.13,8,1,12,0.00
2013-1-22,66.8,50.6,35.1,52.0,43.0,32.0,89,76,56,30.35,30.21,7,1,10,0.00
2013-1-23,72.4,60.7,49.9,59.0,54.2,48.0,97,80,62,30.33,30.16,9,3,16,0.00
2013-1-24,77.9,66.2,57.8,65.0,60.5,56.0,97,83,60,30.22,30.04,9,3,14,0.00
2013-1-25,65.5,56.6,50.8,61.0,52.9,46.0,92,87,83,30.18,30.04,9,3,13,0.00
2013-1-26,52.4,50.0,46.1,52.0,48.0,44.0,98,93,80,30.23,30.13,8,2,9,0.01
2013-1-27,76.6,64.5,51.8,65.0,60.2,51.0,100,87,63,30.13,29.95,9,3,19,0.01
2013-1-28,79.2,72.2,67.1,68.0,65.6,64.0,91,80,63,30.02,29.85,13,6,21,0.00
2013-1-29,78.4,68.2,53.7,69.0,62.2,37.0,91,81,54,29.87,29.46,13,5,27,0.28
2013-1-30,54.3,45.7,31.4,38.0,30.5,24.0,84,57,31,30.19,29.73,11,3,21,0.00
2013-1-31,67.9,48.9,32.4,32.0,27.1,24.0,75,47,19,30.28,30.14,8,2,14,0.00
2013-2-1,64.7,49.0,32.0,41.0,34.6,25.0,76,60,36,30.40,30.19,6,2,11,0.00
2013-2-2,52.9,51.5,50.2,40.0,40.0,40.0,69,66,62,30.21,30.20,4,3,7,0.00
2013-2-4,71.0,61.1,51.8,60.0,54.2,-99.9,96,81,69,29.97,29.81,7,-12,14,0.08
2013-2-5,73.8,64.1,58.6,64.0,60.4,57.0,99,89,65,30.00,29.88,5,2,9,0.00
2013-2-6,68.1,62.3,57.8,64.0,60.3,56.0,97,93,82,30.02,29.88,10,4,16,0.14
2013-2-7,75.3,63.0,55.2,64.0,57.2,49.0,98,83,47,30.07,29.82,10,3,14,0.01
2013-2-8,64.0,54.0,44.7,50.0,42.6,39.0,85,67,43,30.25,30.07,8,2,13,0.00
2013-2-9,61.3,51.8,46.7,61.0,49.7,44.0,98,92,85,30.15,29.79,11,6,16,0.05
2013-2-10,69.4,60.0,50.3,66.0,46.3,34.0,97,64,34,30.02,29.64,14,3,26,0.17
2013-2-11,55.0,50.2,46.3,48.0,44.4,39.0,95,82,57,30.15,30.00,6,1,10,0.28
2013-2-12,54.7,48.8,44.2,51.0,46.8,42.0,97,92,83,30.03,29.85,7,2,12,0.87
2013-2-13,55.3,44.9,40.6,42.0,38.5,36.0,88,79,55,30.19,30.03,9,2,18,0.00
2013-2-14,68.6,51.3,34.4,46.0,38.6,33.0,95,66,34,30.15,30.03,6,2,10,0.00
2013-2-15,51.2,46.7,32.9,41.0,34.0,24.0,79,62,43,30.40,30.09,7,2,12,0.00
2013-2-16,56.7,42.5,28.3,32.0,28.2,24.0,85,60,35,30.46,30.22,6,1,8,0.00
2013-2-17,69.5,55.9,42.3,47.0,36.9,31.0,69,52,30,30.22,29.96,15,5,21,0.00
2013-2-18,78.8,63.4,50.7,62.0,49.0,36.0,83,62,25,30.11,29.78,17,5,23,0.00
2013-2-19,62.4,51.1,34.1,36.0,30.2,24.0,86,49,23,30.33,30.12,10,2,14,0.00
2013-2-20,54.1,49.0,46.5,41.0,37.1,32.0,80,64,43,30.18,29.78,15,6,20,0.07
2013-2-21,70.3,56.4,45.3,58.0,43.9,33.0,98,68,26,29.91,29.65,19,6,23,0.14
2013-2-22,49.5,43.2,36.5,40.0,32.8,28.0,85,68,49,30.13,29.90,11,2,12,0.00
2013-2-23,57.7,43.5,29.2,35.0,31.1,26.0,89,64,42,30.10,29.96,7,1,10,0.00
2013-2-24,69.4,54.6,33.6,48.0,41.2,31.0,93,63,39,29.95,29.65,14,5,17,0.00
2013-2-25,61.7,54.5,42.1,56.0,41.8,31.0,88,64,35,29.71,29.51,16,6,24,0.04
2013-2-26,59.2,46.4,35.9,38.0,34.3,32.0,84,64,41,29.93,29.71,14,4,20,0.00
2013-2-27,58.8,46.3,33.4,38.0,30.7,24.0,92,59,27,30.23,29.90,12,3,16,0.00
2013-2-28,59.1,45.1,32.0,33.0,28.6,25.0,83,55,30,30.33,30.19,10,2,16,0.00
2013-3-1,56.5,43.8,31.9,34.0,29.7,24.0,78,59,38,30.32,30.20,6,1,11,0.00
2013-3-2,53.9,40.7,31.1,31.0,25.7,21.0,82,58,31,30.45,30.28,9,2,15,0.00
2013-3-3,70.0,52.7,31.6,46.0,33.4,25.0,78,51,30,30.28,29.87,13,4,20,0.00
2013-3-4,77.4,66.3,56.1,58.0,52.2,45.0,81,62,43,29.88,29.64,18,6,27,0.00
2013-3-5,64.9,52.1,37.7,58.0,30.6,21.0,84,47,25,30.37,29.68,14,5,21,0.00
2013-3-6,60.7,46.3,29.4,31.0,25.4,21.0,79,47,24,30.48,30.23,6,1,9,0.00
2013-3-7,70.5,56.7,42.9,40.0,33.6,26.0,58,44,24,30.28,30.12,11,4,16,0.00
2013-3-8,64.7,58.9,52.7,58.0,52.5,40.0,83,79,59,30.21,30.03,12,4,14,0.00
2013-3-9,72.4,66.9,60.4,64.0,60.8,56.0,89,81,73,30.02,29.68,12,6,21,0.01
2013-3-10,64.6,54.2,38.7,62.0,43.5,32.0,96,68,50,30.10,29.73,13,4,19,1.08
2013-3-11,60.1,44.0,30.8,34.0,28.3,21.0,94,60,24,30.16,30.04,10,2,15,0.00
2013-3-12,69.2,53.3,35.6,36.0,32.0,26.0,79,47,26,30.31,30.07,11,2,15,0.00
2013-3-13,69.5,54.3,38.3,43.0,37.1,33.0,85,55,32,30.46,30.31,7,2,11,0.00
2013-3-14,74.9,62.0,47.4,50.0,44.4,38.0,72,54,38,30.39,30.20,13,3,16,0.00
2013-3-15,78.6,66.0,54.0,57.0,50.5,45.0,87,61,32,30.20,29.93,11,4,20,0.00
2013-3-16,81.3,69.2,58.7,62.0,57.6,52.0,89,68,46,29.93,29.71,11,6,23,0.00
2013-3-17,77.7,69.9,62.5,64.0,61.8,57.0,86,76,61,29.79,29.65,10,3,16,0.00
2013-3-18,76.6,66.7,56.7,67.0,56.5,45.0,93,71,48,29.99,29.68,9,3,15,0.00
2013-3-19,70.0,57.8,42.5,51.0,45.6,39.0,88,66,46,30.11,29.95,12,2,14,0.23
2013-3-20,68.4,56.7,43.9,49.0,39.2,33.0,90,57,27,30.30,30.05,8,1,12,0.00
2013-3-21,71.4,61.0,49.7,60.0,45.8,34.0,83,58,44,30.05,29.60,14,5,21,0.00
2013-3-22,74.0,61.3,48.4,66.0,56.1,46.0,91,83,69,29.84,29.59,9,3,17,0.00
2013-3-23,62.0,53.1,47.8,55.0,49.7,46.0,96,88,76,29.87,29.67,8,2,13,0.00
2013-3-24,54.1,46.2,36.3,50.0,33.8,28.0,90,64,41,30.19,29.79,13,4,22,0.00
2013-3-25,55.2,42.9,27.4,28.0,23.3,20.0,78,49,27,30.44,30.20,8,2,21,0.00
2013-3-26,59.4,43.0,23.7,30.0,25.4,20.0,87,53,31,30.54,30.34,4,1,9,0.00
2013-3-27,70.6,54.6,38.8,45.0,35.2,25.0,64,50,32,30.36,30.13,11,4,17,0.00
2013-3-28,57.8,53.4,51.5,47.0,46.0,45.0,83,76,62,30.20,30.18,6,4,10,0.00
2013-4-4,50.2,46.7,42.6,44.0,40.6,-99.9,96,83,77,30.23,30.14,5,-14,10,0.00
2013-4-5,69.2,54.0,38.5,52.0,45.8,37.0,96,76,53,30.28,30.06,6,1,7,0.00
2013-4-6,74.8,64.6,53.7,60.0,54.7,48.0,86,71,57,30.06,29.86,10,4,18,0.00
2013-4-7,75.5,68.2,60.9,64.0,61.1,57.0,89,78,66,29.94,29.77,12,4,19,0.00
2013-4-8,76.8,70.8,64.5,67.0,63.7,60.0,87,78,70,29.79,29.67,9,4,18,0.00
2013-4-9,85.0,75.1,69.0,69.0,66.7,64.0,88,76,56,29.72,29.62,14,6,23,0.00
2013-4-10,73.7,52.1,41.0,70.0,49.3,39.0,96,90,72,29.95,29.68,13,3,16,0.31
2013-4-16,89.4,80.0,71.4,72.0,69.1,66.0,85,70,52,29.88,29.77,12,5,18,0.00
2013-4-17,86.3,78.0,73.3,72.0,70.6,69.0,93,79,60,29.87,29.65,14,5,24,0.00
2013-4-18,75.0,57.7,44.9,72.0,51.2,39.0,94,80,57,30.15,29.57,14,4,23,0.44
2013-4-19,63.5,48.5,31.8,39.0,34.4,30.0,95,63,29,30.30,30.14,8,2,16,0.00
2013-4-20,70.8,58.1,38.5,41.0,36.4,33.0,86,48,26,30.23,30.04,14,3,20,0.00
2013-4-21,72.4,60.1,46.5,55.0,48.8,41.0,87,68,49,30.21,30.07,8,3,13,0.00
2013-4-22,79.9,66.9,49.9,62.0,55.9,46.0,90,69,51,30.12,29.86,14,3,15,0.00
2013-5-2,55.1,48.5,43.6,50.0,41.8,-99.9,93,82,76,30.32,30.13,12,-13,20,0.00
2013-5-3,66.6,51.7,39.5,39.0,35.1,31.0,82,58,27,30.30,30.05,12,2,19,0.00
2013-5-4,75.8,58.1,36.7,42.0,36.9,33.0,86,50,25,30.05,29.89,10,2,15,0.00
2013-5-5,69.2,55.1,39.9,49.0,43.6,37.0,92,67,46,30.16,30.02,5,1,12,0.00
2013-5-6,76.1,60.9,42.9,57.0,51.3,42.0,97,73,49,30.14,30.00,3,0,8,0.00
2013-5-7,85.0,71.9,53.6,60.0,56.9,52.0,96,63,39,30.07,29.92,6,1,10,0.00
2013-5-8,87.4,74.1,59.7,64.0,59.3,55.0,85,62,41,30.01,29.86,16,3,16,0.00
2013-5-9,72.8,68.8,65.5,69.0,65.4,60.0,98,89,71,29.98,29.80,16,2,19,0.51
2013-5-10,82.0,71.4,64.8,70.0,66.3,64.0,98,85,62,30.00,29.85,5,1,11,0.01
2013-5-11,79.9,68.5,55.3,66.0,56.3,50.0,95,69,35,30.14,29.98,9,2,14,0.00
2013-5-12,78.3,64.4,52.7,54.0,48.9,42.0,93,62,28,30.26,30.13,8,1,12,0.00
2013-5-13,86.8,69.7,49.1,56.0,50.7,44.0,89,55,29,30.26,30.12,9,1,11,0.00
2013-5-14,86.7,74.8,61.4,66.0,60.1,54.0,91,63,36,30.17,29.98,10,3,15,0.00
2013-5-15,74.5,71.7,68.3,70.0,68.0,65.0,95,88,79,30.06,29.79,13,4,15,0.07
2013-5-16,82.5,72.1,62.6,74.0,68.0,61.0,97,87,73,29.90,29.70,12,2,21,0.57
2013-5-17,91.0,80.6,72.9,77.0,73.5,70.0,94,80,60,29.86,29.76,10,3,13,0.00
2013-5-18,93.0,81.5,70.8,76.0,72.1,68.0,93,74,56,29.89,29.75,10,4,17,0.00
2013-5-19,92.3,81.0,70.8,75.0,70.6,66.0,90,72,53,29.84,29.69,12,4,21,0.00
2013-5-20,90.0,81.0,73.1,75.0,71.7,69.0,89,74,58,29.82,29.66,11,4,22,0.00
2013-5-21,88.4,74.9,62.3,75.0,69.1,61.0,97,83,62,29.86,29.62,14,4,24,0.67
2013-5-22,84.7,70.9,57.0,67.0,63.0,56.0,99,78,47,29.93,29.82,5,1,8,0.00
2013-5-23,85.8,77.7,70.7,75.0,72.2,66.0,98,84,68,30.03,29.86,10,3,15,0.00
2013-5-24,85.0,77.1,67.0,75.0,72.2,66.0,97,85,68,30.14,29.97,10,3,25,0.63
2013-5-25,82.4,72.3,67.1,75.0,69.9,64.0,98,92,73,30.14,30.03,10,2,18,0.51
2013-5-26,88.0,78.9,71.3,75.0,71.9,69.0,97,80,60,30.08,29.92,8,3,15,0.01
2013-5-27,89.0,79.7,70.9,73.0,70.7,69.0,94,75,56,29.98,29.79,10,3,24,0.00
2013-5-28,87.7,80.0,72.3,72.0,69.6,68.0,88,72,53,29.89,29.76,10,4,20,0.00
2013-5-29,83.5,77.2,73.2,74.0,71.6,69.0,92,83,70,29.81,29.71,12,5,20,0.12
2013-5-30,90.2,81.3,74.8,77.0,73.8,71.0,91,79,63,29.81,29.68,10,4,16,0.00
2013-5-31,92.7,83.5,77.0,78.0,74.6,73.0,88,75,58,29.83,29.67,13,4,19,0.00
2013-6-1,90.9,82.2,75.5,79.0,74.3,71.0,86,77,61,29.89,29.73,10,2,19,0.00
2013-6-2,85.5,74.6,62.1,71.0,63.5,55.0,97,71,38,30.04,29.91,6,1,9,0.07
2013-6-3,88.4,74.3,57.1,66.0,61.8,55.0,96,68,42,29.98,29.82,6,2,9,0.00
2013-6-4,92.3,80.9,69.9,74.0,69.4,65.0,85,69,49,29.95,29.77,12,3,14,0.00
2013-6-5,92.6,81.1,70.9,74.0,70.7,68.0,93,72,49,29.90,29.69,15,2,20,0.00
2013-6-6,79.0,73.6,66.3,73.0,69.6,65.0,97,87,71,29.91,29.76,6,1,12,0.09
2013-6-7,84.9,71.8,60.7,66.0,62.0,59.0,98,75,43,29.98,29.86,5,1,13,0.01
2013-6-8,89.7,75.8,58.1,67.0,62.5,57.0,98,67,43,29.93,29.78,9,2,11,0.00
2013-6-9,89.9,78.2,69.1,74.0,70.7,67.0,93,79,54,29.92,29.83,10,1,12,0.00
2013-6-10,99.7,83.6,67.4,75.0,69.8,64.0,97,68,34,29.96,29.87,7,2,9,0.00
2013-6-11,96.8,84.0,74.2,76.0,73.2,71.0,95,72,47,30.02,29.90,10,2,16,0.00
2013-6-12,97.2,85.4,74.8,76.0,73.1,70.0,95,70,42,30.04,29.90,9,2,13,0.00
2013-6-13,99.5,86.7,74.8,76.0,73.2,71.0,92,67,42,30.04,29.85,10,1,11,0.00
2013-6-14,97.9,86.3,72.9,75.0,72.3,69.0,89,65,46,29.97,29.84,7,1,8,0.00
2013-6-15,93.2,82.1,72.4,78.0,73.0,69.0,93,75,58,29.98,29.86,10,2,20,0.00
2013-6-16,98.7,86.4,75.2,76.0,71.9,67.0,90,65,35,30.00,29.84,8,2,11,0.00
2013-6-17,98.3,84.7,75.2,75.0,72.6,68.0,87,69,44,30.02,29.82,6,2,15,0.00
2013-6-18,85.3,78.4,72.4,75.0,72.3,69.0,92,82,68,29.96,29.85,4,1,8,0.02
2013-6-19,95.6,80.9,69.7,80.0,73.5,69.0,97,79,53,29.96,29.87,7,2,10,0.24
2013-6-20,98.2,86.6,75.4,76.0,72.4,68.0,90,65,41,30.03,29.91,9,3,14,0.00
2013-6-21,98.8,86.8,74.3,75.0,71.8,68.0,92,63,38,30.06,29.93,9,3,13,0.00
2013-6-22,97.5,86.7,74.8,76.0,71.7,68.0,90,63,41,30.02,29.86,12,4,17,0.00
2013-6-23,98.2,87.0,75.0,75.0,71.2,66.0,91,62,38,29.98,29.85,11,3,15,0.00
2013-6-24,97.8,87.2,75.0,75.0,71.3,68.0,89,62,40,30.02,29.86,13,3,16,0.00
2013-6-25,100.4,88.3,76.2,76.0,70.9,66.0,89,59,36,29.98,29.81,10,3,19,0.00
2013-6-26,101.6,88.6,76.3,75.0,71.5,66.0,87,59,39,29.96,29.83,10,3,16,0.00
2013-6-27,103.5,89.5,76.4,75.0,70.2,65.0,87,56,29,30.01,29.83,6,2,14,0.00
2013-6-28,105.8,90.3,77.9,73.0,70.0,68.0,76,54,31,29.93,29.75,7,2,11,0.00
2013-6-29,100.5,86.8,70.4,72.0,67.0,61.0,92,56,28,29.84,29.74,7,1,11,0.00
2013-6-30,94.9,82.0,68.7,66.0,60.6,56.0,84,52,31,29.90,29.77,8,1,16,0.00
2013-7-1,90.4,77.3,62.5,64.0,59.4,56.0,85,57,33,29.99,29.89,5,1,12,0.00
2013-7-2,91.7,77.3,62.9,62.0,57.0,51.0,86,54,26,30.05,29.96,6,1,8,0.00
2013-7-3,94.3,77.6,59.5,65.0,56.0,50.0,81,51,26,30.04,29.90,6,1,11,0.00
2013-7-4,97.4,82.9,71.0,69.0,63.7,59.0,76,55,29,29.99,29.86,10,3,16,0.00
2013-7-5,98.0,84.5,66.5,69.0,63.6,58.0,83,53,26,29.98,29.83,8,2,14,0.00
2013-7-6,96.1,84.0,73.2,71.0,66.6,64.0,81,58,35,29.93,29.81,12,3,15,0.00
2013-7-7,97.5,86.0,73.8,75.0,71.0,64.0,86,63,42,29.97,29.86,11,4,15,0.00
2013-7-8,96.7,84.5,76.5,76.0,72.8,70.0,87,69,46,30.07,29.95,7,2,16,0.00
2013-7-9,102.3,89.0,76.5,76.0,70.6,67.0,89,58,34,30.11,29.94,5,2,12,0.00
2013-7-10,103.8,91.4,78.8,75.0,71.1,67.0,83,54,31,30.04,29.86,8,2,10,0.00
2013-7-11,104.7,87.5,79.8,75.0,72.2,69.0,78,62,34,29.95,29.85,11,2,19,0.00
2013-7-12,102.1,87.2,71.6,74.0,71.4,69.0,92,63,36,29.94,29.83,8,2,12,0.00
2013-7-13,102.2,89.5,78.8,73.0,69.0,61.0,79,53,30,29.96,29.82,9,4,13,0.00
2013-7-14,80.4,73.0,68.5,71.0,66.7,60.0,96,82,51,29.98,29.85,5,1,8,0.45
2013-7-15,76.5,71.2,67.2,74.0,69.9,66.0,98,95,88,30.07,29.95,8,2,9,0.80
2013-7-16,90.6,77.7,71.5,76.0,72.5,69.0,96,85,57,30.17,30.05,11,3,21,0.11
2013-7-17,90.5,78.3,71.6,77.0,72.8,69.0,99,84,58,30.19,30.11,11,2,17,0.00
2013-7-18,95.5,81.9,72.1,76.0,73.2,71.0,98,77,48,30.16,29.97,8,1,8,0.00
2013-7-19,94.3,80.7,74.2,75.0,71.7,69.0,93,75,49,30.03,29.90,15,3,21,0.00
2013-7-20,95.9,81.0,72.9,78.0,73.3,71.0,95,79,47,29.97,29.83,10,1,13,0.29
2013-7-21,96.8,83.9,73.2,77.0,73.6,71.0,97,74,46,29.93,29.83,7,2,20,0.00
2013-7-22,97.7,86.6,77.2,77.0,75.0,73.0,91,70,47,29.97,29.84,7,2,14,0.00
2013-7-23,99.6,87.5,78.0,79.0,73.9,65.0,91,66,33,29.96,29.80,8,2,15,0.00
2013-7-24,96.9,85.6,77.3,77.0,74.4,69.0,89,70,51,29.98,29.84,6,2,9,0.00
2013-7-25,95.9,84.4,75.3,78.0,74.9,72.0,90,74,53,30.01,29.93,7,2,10,0.17
2013-7-26,95.7,83.2,72.7,76.0,73.9,71.0,98,75,52,30.00,29.81,11,2,19,0.78
2013-7-27,87.5,77.5,70.4,75.0,71.0,68.0,98,82,56,29.99,29.88,6,1,11,0.00
2013-7-28,93.0,80.3,67.6,76.0,71.4,67.0,98,76,56,29.97,29.84,9,2,11,0.00
2013-7-29,97.8,86.0,76.2,77.0,72.2,62.0,93,67,38,29.99,29.89,8,3,14,0.00
2013-7-30,100.3,87.2,78.0,77.0,71.4,64.0,86,62,36,30.07,29.92,9,2,17,0.00
2013-7-31,100.5,87.9,77.2,75.0,72.0,66.0,87,61,41,30.05,29.88,6,2,10,0.00
2013-8-1,105.1,92.8,77.8,75.0,71.5,69.0,77,52,32,29.97,29.83,9,2,11,0.00
2013-8-2,103.7,91.3,79.3,74.0,71.3,68.0,77,54,33,29.93,29.83,7,2,10,0.00
2013-8-3,102.2,89.9,77.3,77.0,70.7,66.0,83,55,33,29.98,29.89,6,2,11,0.00
2013-8-4,102.3,89.6,78.6,77.0,73.2,69.0,86,60,39,30.05,29.89,6,2,10,0.00
2013-8-5,103.4,90.7,79.5,74.0,70.5,66.0,78,54,32,29.99,29.82,11,2,11,0.00
2013-8-6,103.9,91.0,77.6,75.0,70.8,64.0,83,54,28,29.91,29.75,8,2,12,0.00
2013-8-7,105.3,91.5,78.2,76.0,71.4,66.0,86,55,30,29.89,29.73,9,2,13,0.00
2013-8-8,105.3,90.0,77.0,76.0,70.4,62.0,89,56,28,29.87,29.73,6,2,11,0.00
2013-8-9,105.0,89.5,75.0,75.0,64.7,55.0,87,49,19,29.93,29.81,7,2,10,0.00
2013-8-10,104.9,90.9,76.2,72.0,69.0,64.0,76,51,30,30.01,29.88,14,1,21,0.00
2013-8-11,101.2,87.9,74.9,76.0,72.3,69.0,88,62,38,30.05,29.91,6,2,12,0.00
2013-8-12,100.8,88.5,76.2,75.0,71.8,68.0,88,60,37,30.04,29.89,4,1,10,0.00
2013-8-13,100.5,86.8,79.8,78.0,73.5,69.0,82,65,42,29.99,29.84,9,2,15,0.23
2013-8-14,92.7,81.2,75.1,79.0,75.1,73.0,97,83,58,29.99,29.89,10,2,12,0.31
2013-8-15,91.3,79.9,72.5,75.0,69.6,65.0,95,73,48,30.04,29.91,8,2,12,0.00
2013-8-16,91.9,80.6,70.9,70.0,65.4,63.0,77,61,42,30.03,29.92,7,2,12,0.00
2013-8-17,91.7,78.2,62.1,64.0,61.7,59.0,93,60,37,30.06,29.93,12,2,12,0.00
2013-8-18,93.9,78.7,62.1,69.0,61.9,59.0,93,60,33,30.07,29.95,8,2,13,0.00
2013-8-19,97.7,82.7,67.0,68.0,63.0,59.0,82,55,29,30.05,29.90,7,2,10,0.00
2013-8-20,96.8,85.1,71.3,69.0,64.4,61.0,80,52,31,30.02,29.91,8,2,11,0.00
2013-8-21,96.8,84.9,71.5,72.0,68.3,66.0,87,60,38,30.07,29.95,7,1,12,0.00
2013-8-22,100.6,88.0,75.2,75.0,71.1,68.0,82,59,38,30.07,29.90,8,2,12,0.00
2013-8-23,100.7,88.8,76.3,76.0,70.4,67.0,85,57,35,30.01,29.85,9,2,11,0.00
2013-8-24,100.3,88.2,74.5,75.0,71.2,69.0,85,59,38,30.02,29.92,9,2,15,0.00
2013-8-25,97.1,86.3,72.7,74.0,69.9,66.0,88,60,40,30.11,30.00,11,4,16,0.00
2013-8-26,94.7,83.8,74.0,73.0,70.9,68.0,90,67,43,30.13,30.01,15,5,19,0.00
2013-8-27,97.6,83.2,73.6,74.0,70.7,67.0,93,69,37,30.10,29.99,6,2,11,0.00
2013-8-28,99.9,84.6,69.7,74.0,69.2,67.0,91,63,36,30.09,29.95,5,1,10,0.00
2013-8-29,104.1,88.1,72.9,72.0,67.5,63.0,84,55,29,30.05,29.90,5,1,9,0.00
2013-8-30,104.8,92.0,77.2,73.0,67.2,64.0,75,46,28,29.98,29.82,9,2,11,0.00
2013-8-31,104.7,91.3,77.7,74.0,69.1,65.0,82,52,29,29.89,29.75,13,2,15,0.00
2013-9-1,105.9,91.2,79.6,73.0,70.5,67.0,74,53,30,29.87,29.73,8,2,11,0.00
2013-9-2,96.1,85.7,77.4,75.0,71.1,68.0,78,63,42,29.96,29.82,5,1,11,0.00
2013-9-3,103.5,87.8,72.9,75.0,69.4,64.0,89,59,30,29.95,29.81,5,1,9,0.00
2013-9-4,105.0,87.8,73.6,74.0,70.2,65.0,89,59,27,30.01,29.89,10,2,16,0.00
2013-9-5,101.4,88.0,73.7,75.0,70.1,66.0,87,58,32,30.08,29.95,7,2,10,0.00
2013-9-6,102.2,87.3,75.0,75.0,69.4,64.0,85,58,30,30.07,29.91,6,1,10,0.00
2013-9-7,99.9,86.0,75.5,75.0,69.5,62.0,84,61,30,30.02,29.87,11,2,13,0.00
2013-9-8,96.9,83.2,68.3,74.0,68.5,63.0,97,65,36,29.98,29.84,9,2,14,0.00
2013-9-9,96.1,83.7,68.8,74.0,68.9,61.0,95,64,37,29.99,29.87,11,2,13,0.00
2013-9-10,92.4,82.0,72.0,75.0,69.3,66.0,91,68,42,30.07,29.97,10,3,14,0.00
2013-9-11,97.1,83.9,70.7,74.0,69.8,67.0,93,65,39,30.10,29.96,11,3,13,0.00
2013-9-12,98.8,85.7,73.2,73.0,67.8,63.0,85,58,34,30.05,29.87,8,1,12,0.00
2013-9-13,100.4,84.2,69.9,70.0,66.9,64.0,84,59,34,29.94,29.79,8,1,11,0.00
2013-9-14,96.8,85.3,76.0,70.0,67.1,65.0,75,56,38,29.93,29.82,13,4,15,0.00
2013-9-15,96.2,85.3,74.1,72.0,67.4,64.0,75,56,39,30.01,29.91,7,3,13,0.00
2013-9-16,96.9,85.7,75.1,75.0,68.2,63.0,87,58,38,30.06,29.93,10,2,14,0.00
2013-9-17,97.1,85.4,73.3,72.0,67.4,64.0,79,56,37,30.06,29.91,9,2,12,0.00
2013-9-18,99.1,87.1,75.4,74.0,68.2,63.0,79,55,31,29.99,29.84,11,2,13,0.00
2013-9-19,92.8,81.1,75.5,78.0,73.4,70.0,97,78,53,29.96,29.82,12,2,14,0.26
2013-9-20,75.7,73.2,70.0,75.0,72.8,70.0,99,99,97,29.89,29.78,6,1,8,2.80
2013-9-21,85.0,72.0,61.4,70.0,58.0,49.0,97,66,30,29.94,29.83,9,2,18,0.00
2013-9-22,83.7,68.8,54.6,60.0,54.5,52.0,96,65,34,29.93,29.78,9,2,12,0.00
2013-9-23,88.1,73.3,60.7,66.0,58.7,54.0,84,63,37,29.86,29.73,9,2,10,0.00
2013-9-24,94.7,78.0,64.3,71.0,62.9,56.0,96,64,32,29.90,29.81,4,1,9,0.00
2013-9-25,95.3,76.5,57.0,62.0,56.2,51.0,94,56,23,29.89,29.76,5,1,7,0.00
2013-9-26,94.3,80.8,67.2,64.0,59.7,54.0,71,50,31,29.88,29.78,8,2,12,0.00
2013-9-27,88.1,79.2,68.2,74.0,69.2,62.0,84,72,58,29.93,29.83,11,3,17,0.00
2013-9-28,91.3,77.7,71.1,78.0,73.5,70.0,98,87,64,30.00,29.86,7,2,16,0.71
2013-9-29,83.5,70.1,62.3,69.0,64.5,61.0,98,84,52,30.03,29.89,7,1,8,0.28
2013-9-30,86.7,74.3,61.6,69.0,64.3,56.0,94,73,44,29.92,29.80,6,1,11,0.00
2013-10-1,89.3,78.9,69.2,74.0,71.6,68.0,98,80,54,29.92,29.82,8,3,11,0.00
2013-10-2,86.1,78.5,72.8,75.0,72.7,71.0,96,83,63,29.97,29.85,9,4,13,0.00
2013-10-3,90.3,80.5,73.6,76.0,73.4,71.0,96,80,58,29.93,29.80,10,3,15,0.00
2013-10-4,89.4,80.5,73.5,74.0,72.1,70.0,94,77,56,29.90,29.82,9,3,13,0.00
2013-10-5,83.4,68.7,56.1,74.0,62.1,47.0,96,80,64,30.08,29.85,9,2,20,0.00
2013-10-6,76.1,60.5,47.2,53.0,44.8,36.0,96,63,25,30.13,30.03,6,1,12,0.00
2013-10-7,82.8,61.2,42.7,50.0,42.4,37.0,94,58,20,30.16,30.05,3,0,8,0.00
2013-10-8,80.6,63.5,45.4,55.0,49.6,44.0,96,65,34,30.12,30.00,7,1,8,0.00
2013-10-9,81.8,69.6,58.1,62.0,57.2,54.0,86,67,43,30.08,29.97,8,2,13,0.00
2013-10-10,83.5,71.9,59.9,66.0,61.6,57.0,92,71,51,30.06,29.89,9,2,13,0.00
2013-10-11,85.7,75.6,66.4,74.0,69.4,65.0,95,81,67,29.96,29.82,7,3,12,0.03
2013-10-12,86.4,74.6,67.6,78.0,71.6,66.0,96,90,74,30.06,29.87,7,2,10,0.13
2013-10-13,75.3,71.2,67.2,71.0,68.8,66.0,97,92,85,30.18,30.03,8,2,11,0.00
2013-10-14,74.7,71.8,69.6,74.0,71.0,68.0,99,97,94,30.12,29.92,7,3,10,0.48
2013-10-15,73.3,68.6,55.4,72.0,67.8,55.0,99,97,95,30.01,29.89,7,2,13,1.70
2013-10-16,59.1,55.7,53.5,56.0,54.8,53.0,99,96,89,30.08,29.99,6,2,11,0.79
2013-10-17,70.9,57.8,46.6,56.0,51.1,46.0,98,81,49,30.15,30.00,4,1,7,0.01
2013-10-18,71.1,60.3,50.1,59.0,54.3,49.0,98,82,56,30.04,29.91,9,2,13,0.00
2013-10-19,65.2,53.5,42.4,57.0,44.4,41.0,95,74,43,30.21,30.04,8,2,14,0.00
2013-10-20,71.2,56.1,39.0,51.0,45.7,38.0,98,72,43,30.10,29.92,6,2,13,0.00
2013-10-21,78.8,62.8,55.1,67.0,57.6,49.0,96,83,68,30.08,29.93,8,2,12,0.00
2013-10-22,75.9,58.6,44.7,54.0,47.2,43.0,95,70,32,30.18,30.04,7,1,9,0.00
2013-10-23,83.6,64.2,46.4,56.0,50.4,44.0,94,65,36,30.15,30.05,4,1,7,0.00
2013-10-24,83.1,66.9,52.4,56.0,51.7,47.0,88,62,32,30.25,30.08,3,0,8,0.00
2013-10-25,69.7,59.3,51.5,55.0,51.3,48.0,94,76,56,30.40,30.25,8,3,14,0.00
2013-10-26,77.8,65.2,55.8,66.0,57.7,50.0,95,77,66,30.25,30.03,10,3,14,0.37
2013-10-27,67.6,62.3,58.9,63.0,60.3,58.0,99,93,78,30.13,30.02,8,1,11,0.09
2013-10-28,79.6,68.4,58.6,71.0,64.8,58.0,99,89,72,30.11,30.00,11,3,12,0.00
2013-10-29,78.2,72.4,67.7,72.0,69.4,67.0,97,90,81,30.09,29.99,7,3,13,0.00
2013-10-30,71.4,68.1,65.4,70.0,67.3,65.0,99,97,90,30.03,29.81,14,6,19,1.57
2013-10-31,77.5,67.2,50.4,70.0,58.2,45.0,100,78,33,29.88,29.68,8,2,17,0.05
2013-11-1,77.0,61.2,47.2,58.0,51.9,46.0,98,75,45,30.06,29.81,7,1,12,0.00
2013-11-2,67.9,55.5,43.1,49.0,42.5,38.0,94,66,34,30.28,30.07,6,1,15,0.00
2013-11-3,66.9,53.6,39.3,49.0,44.2,38.0,98,73,48,30.23,30.01,12,3,17,0.00
2013-11-4,61.5,57.5,52.5,61.0,55.0,47.0,99,91,71,30.11,30.03,7,2,12,0.68
2013-11-5,69.0,65.6,61.6,69.0,65.2,61.0,99,98,97,30.05,29.95,8,4,14,0.21
2013-11-6,70.2,56.8,43.7,70.0,54.0,42.0,99,91,72,30.36,29.95,8,2,16,0.03
2013-11-7,63.8,49.1,38.6,46.0,42.1,38.0,98,80,46,30.52,30.36,5,1,10,0.00
2013-11-8,65.2,54.4,41.8,49.0,45.7,41.0,98,74,49,30.41,30.16,6,1,10,0.00
2013-11-9,67.7,58.5,54.6,54.0,49.9,47.0,85,74,60,30.23,30.14,9,3,12,0.00
2013-11-10,66.6,56.1,46.7,53.0,49.7,45.0,95,80,53,30.35,30.22,3,1,7,0.00
2013-11-11,73.4,56.8,43.1,56.0,50.3,42.0,98,81,53,30.31,30.18,3,0,6,0.00
2013-11-12,57.7,49.5,36.2,56.0,39.3,25.0,98,70,44,30.68,30.28,12,3,21,0.00
2013-11-13,52.4,37.9,27.3,30.0,26.7,23.0,92,67,38,30.71,30.42,6,1,9,0.00
2013-11-14,61.4,47.5,32.4,47.0,36.5,28.0,88,68,39,30.41,30.07,12,2,14,0.00
2013-11-15,73.5,61.2,52.8,61.0,54.9,47.0,93,80,64,30.07,29.86,7,2,10,0.00
2013-11-16,75.6,69.9,61.3,71.0,66.4,60.0,95,89,77,29.89,29.70,9,3,15,0.00
2013-11-17,87.1,75.1,62.4,73.0,64.7,49.0,92,73,37,29.97,29.71,9,2,14,0.00
2013-11-18,75.5,64.0,53.0,47.0,42.0,36.0,68,47,28,30.17,29.97,10,2,14,0.00
2013-11-19,67.3,59.6,52.6,43.0,39.9,34.0,61,50,32,30.19,30.03,10,3,16,0.00
2013-11-20,63.0,56.8,47.5,57.0,45.7,37.0,83,67,56,30.05,29.93,9,4,14,0.00
2013-11-21,74.0,66.9,49.6,71.0,65.1,49.0,98,94,83,30.13,29.96,10,3,20,0.40
2013-11-22,49.2,38.7,35.7,48.0,37.7,35.0,97,96,94,30.43,30.14,12,4,18,0.71
2013-11-23,41.7,38.5,36.6,40.0,37.1,34.0,97,94,87,30.55,30.42,8,3,13,0.11
2013-11-24,38.5,34.8,33.0,34.0,30.2,27.0,94,84,68,30.58,30.39,11,2,11,0.14
2013-11-25,37.9,35.7,33.2,37.0,34.6,32.0,97,96,93,30.39,30.16,7,1,9,0.63
2013-11-26,50.7,40.9,36.0,39.0,34.6,31.0,94,79,56,30.36,30.13,9,3,15,0.00
2013-11-27,46.4,35.3,26.2,30.0,23.8,20.0,92,65,39,30.50,30.36,11,2,12,0.00
2013-11-28,53.4,38.1,25.9,32.0,28.4,23.0,92,71,39,30.50,30.39,5,1,8,0.00
2013-11-29,57.1,43.8,26.7,43.0,35.5,25.0,96,74,53,30.56,30.39,7,1,9,0.00
2013-11-30,65.8,53.5,42.9,54.0,44.8,35.0,93,73,59,30.39,30.19,8,2,13,0.00
2013-12-1,69.3,60.9,51.1,60.0,56.7,49.0,94,86,72,30.20,29.90,8,2,14,0.00
2013-12-2,70.5,55.3,46.4,58.0,50.8,46.0,98,86,46,29.90,29.68,5,0,6,0.00
2013-12-3,80.5,61.4,43.8,57.0,49.2,43.0,98,69,31,29.68,29.54,7,2,11,0.01
2013-12-4,77.4,66.3,57.0,67.0,60.7,50.0,97,83,65,29.82,29.62,8,2,13,0.00
2013-12-5,55.7,37.5,30.6,48.0,31.1,26.0,94,78,67,30.17,29.82,13,4,16,0.00
2013-12-6,32.7,29.3,25.4,32.0,27.5,22.0,95,92,87,30.52,30.11,9,3,12,0.40
2013-12-7,27.9,25.2,22.9,27.0,23.1,20.0,96,91,87,30.55,30.34,6,2,10,0.00
2013-12-8,37.5,32.9,28.0,36.0,31.6,27.0,96,95,92,30.32,30.09,2,0,5,0.01
2013-12-9,37.3,33.9,31.3,36.0,31.7,26.0,95,91,81,30.43,30.16,7,2,11,0.00
2013-12-10,40.3,29.0,19.1,26.0,22.5,17.0,93,78,55,30.57,30.40,6,1,9,0.00
2013-12-11,49.7,36.6,23.7,35.0,29.8,22.0,94,78,53,30.61,30.38,5,1,7,0.00
2013-12-12,50.6,37.9,25.8,35.0,31.0,24.0,94,78,53,30.64,30.35,5,1,8,0.00
2013-12-13,46.9,42.6,40.2,46.0,39.1,33.0,98,87,72,30.35,29.85,8,2,12,0.18
2013-12-14,47.1,41.3,30.5,47.0,38.8,28.0,98,90,76,30.36,29.83,8,2,17,0.01
2013-12-15,58.4,41.0,25.0,38.0,32.0,23.0,96,73,44,30.42,30.28,4,0,6,0.00
2013-12-16,65.4,50.2,39.1,41.0,36.5,33.0,81,62,35,30.31,30.19,7,2,12,0.00
2013-12-17,70.3,51.0,39.3,46.0,39.5,34.0,92,67,39,30.32,30.23,4,1,8,0.00
2013-12-18,68.6,52.8,35.2,51.0,43.0,34.0,97,72,45,30.30,30.06,11,3,16,0.00
2013-12-19,74.1,64.1,53.9,64.0,58.2,51.0,92,82,65,30.05,29.78,12,5,20,0.00
2013-12-20,72.6,63.4,41.3,67.0,59.5,40.0,95,87,74,29.86,29.73,21,3,21,0.00
2013-12-21,58.7,46.9,37.1,58.0,46.2,36.0,99,97,90,29.79,29.58,6,2,11,1.05
2013-12-22,49.5,39.7,31.7,49.0,35.4,27.0,99,85,69,30.41,29.80,7,3,13,0.00
2013-12-23,47.1,34.5,26.5,34.0,28.7,24.0,93,81,56,30.59,30.40,5,1,7,0.00
2013-12-24,54.2,39.0,24.1,38.0,31.1,23.0,96,76,49,30.59,30.32,8,2,12,0.00
2013-12-25,58.9,45.8,36.2,47.0,38.4,31.0,88,76,64,30.43,30.31,5,2,11,0.00
2013-12-26,53.4,40.5,30.9,41.0,35.6,29.0,95,84,61,30.48,30.36,4,1,6,0.00
2013-12-27,58.4,43.4,31.3,44.0,38.4,30.0,97,84,57,30.49,30.36,4,1,8,0.00
2013-12-28,60.7,46.7,32.5,43.0,37.0,32.0,98,72,42,30.36,30.02,4,1,8,0.00
2013-12-29,55.3,42.3,33.2,49.0,36.4,28.0,89,80,62,30.32,29.98,9,2,18,0.00
2013-12-30,42.0,34.5,28.8,28.0,25.5,23.0,83,70,54,30.45,30.28,5,2,10,0.00
2013-12-31,52.8,38.8,26.5,32.0,28.1,23.0,90,68,42,30.50,30.27,5,1,11,0.00
2014-1-1,67.1,50.2,34.3,53.0,41.6,31.0,88,73,56,30.26,29.94,14,4,17,0.00
2014-1-2,43.1,33.1,25.0,34.0,22.7,19.0,83,67,46,30.51,30.18,11,4,16,0.00